Time;durP1;ratioP1;P1;durP2;ratioP2;P2;SDS_P1;SDS_P2;PMS_P1;PMS_P2;Temp;Humidity;BMP_temperature;BMP_pressure;BME280_temperature;BME280_humidity;BME280_pressure;Samples;Min_cycle;Max_cycle;Signal;HPM_P1;HPM_P2
2021/05/18 00:00:41;;;;;;;3.13;1.63;;;11.40;1.00;;;;;;4934349;29;20024;-86
2021/05/18 00:03:08;;;;;;;3.53;1.50;;;11.40;1.00;;;;;;4935227;29;20031;-85
2021/05/18 00:05:35;;;;;;;1.90;1.35;;;11.40;1.00;;;;;;4969102;28;20037;-86
2021/05/18 00:08:06;;;;;;;2.22;1.30;;;11.20;1.00;;;;;;4994625;28;20026;-85
2021/05/18 00:13:23;;;;;;;2.33;1.38;;;11.20;1.00;;;;;;4994915;28;20084;-85
2021/05/18 00:15:52;;;;;;;2.10;1.40;;;11.30;1.00;;;;;;4979467;28;20406;-86
2021/05/18 00:18:17;;;;;;;2.78;1.10;;;11.30;1.00;;;;;;4995015;28;20027;-85
2021/05/18 00:20:44;;;;;;;2.50;1.50;;;11.40;1.00;;;;;;4980728;28;20085;-85
2021/05/18 00:23:11;;;;;;;2.20;1.15;;;11.40;1.00;;;;;;4994752;28;20030;-85
2021/05/18 00:25:37;;;;;;;2.13;1.10;;;11.70;1.00;;;;;;4981418;28;20127;-86
2021/05/18 00:28:03;;;;;;;1.50;1.20;;;11.20;1.00;;;;;;4994352;28;20043;-85
2021/05/18 00:30:29;;;;;;;2.88;1.23;;;11.20;1.00;;;;;;4994184;28;20057;-85
2021/05/18 00:32:55;;;;;;;2.22;1.25;;;11.20;1.00;;;;;;4994926;28;20053;-86
2021/05/18 00:35:21;;;;;;;2.95;1.17;;;11.20;1.00;;;;;;4994399;28;20092;-85
2021/05/18 00:37:46;;;;;;;2.00;1.15;;;11.20;1.00;;;;;;4994158;28;20026;-86
2021/05/18 00:40:16;;;;;;;4.03;1.15;;;11.30;1.00;;;;;;4993318;28;20034;-85
2021/05/18 00:42:53;;;;;;;1.58;1.27;;;11.10;1.00;;;;;;4994018;28;20022;-85
2021/05/18 00:45:47;;;;;;;3.17;1.40;;;11.10;1.00;;;;;;4979331;28;20034;-86
2021/05/18 00:48:13;;;;;;;2.70;1.25;;;11.20;1.00;;;;;;4976272;28;20092;-85
2021/05/18 00:50:42;;;;;;;3.30;1.35;;;11.10;1.00;;;;;;4990394;28;20050;-85
2021/05/18 00:53:09;;;;;;;1.70;1.13;;;11.00;1.00;;;;;;4994369;28;20035;-86
2021/05/18 00:55:58;;;;;;;5.15;1.40;;;10.90;1.00;;;;;;4994012;28;20065;-86
2021/05/18 00:58:34;;;;;;;1.83;1.13;;;10.80;1.00;;;;;;4993691;28;20378;-85
2021/05/18 01:01:10;;;;;;;2.70;1.20;;;10.90;1.00;;;;;;4994299;28;20030;-86
2021/05/18 01:03:37;;;;;;;3.60;1.10;;;10.90;1.00;;;;;;4994264;28;20022;-86
2021/05/18 01:06:22;;;;;;;3.78;1.10;;;10.80;1.00;;;;;;4994171;28;20022;-85
2021/05/18 01:08:54;;;;;;;2.35;1.00;;;10.80;1.00;;;;;;4974462;28;20034;-86
2021/05/18 01:11:25;;;;;;;3.42;1.38;;;10.80;1.00;;;;;;4993948;28;20023;-85
2021/05/18 01:13:56;;;;;;;1.30;1.08;;;10.80;1.00;;;;;;4993204;28;20033;-86
2021/05/18 01:16:23;;;;;;;3.22;1.35;;;11.00;1.00;;;;;;4993669;28;20037;-86
2021/05/18 01:18:48;;;;;;;3.95;1.42;;;11.10;1.00;;;;;;4993608;28;20038;-86
2021/05/18 01:21:15;;;;;;;2.88;1.17;;;10.70;1.00;;;;;;4976404;28;20030;-86
2021/05/18 01:23:41;;;;;;;4.93;1.38;;;10.70;1.00;;;;;;4994175;28;20415;-85
2021/05/18 01:26:07;;;;;;;5.55;1.08;;;10.60;1.00;;;;;;4993158;28;20046;-86
2021/05/18 01:28:33;;;;;;;4.82;1.10;;;10.60;1.00;;;;;;4992932;28;20069;-86
2021/05/18 01:31:00;;;;;;;2.10;1.10;;;10.60;1.00;;;;;;4993434;28;20418;-86
2021/05/18 01:33:25;;;;;;;2.15;1.50;;;10.60;1.00;;;;;;4993558;28;20023;-86
2021/05/18 01:35:54;;;;;;;5.57;1.10;;;10.60;1.00;;;;;;4993546;28;20043;-86
2021/05/18 01:38:22;;;;;;;3.70;1.42;;;10.60;1.00;;;;;;4993521;28;20033;-86
2021/05/18 01:43:34;;;;;;;1.30;1.02;;;11.00;1.00;;;;;;4993057;28;20053;-86
2021/05/18 01:46:00;;;;;;;4.10;1.10;;;10.80;1.00;;;;;;4993648;28;20487;-85
2021/05/18 01:48:26;;;;;;;1.83;1.27;;;10.70;1.00;;;;;;4992556;28;20084;-86
2021/05/18 01:50:51;;;;;;;2.67;1.20;;;10.70;1.00;;;;;;4975353;28;20037;-86
2021/05/18 01:53:20;;;;;;;2.13;1.08;;;10.70;1.00;;;;;;4993182;28;20022;-86
2021/05/18 01:58:23;;;;;;;2.50;1.08;;;10.80;1.00;;;;;;4992887;28;20038;-86
2021/05/18 02:00:52;;;;;;;1.77;0.95;;;10.70;1.00;;;;;;4992984;28;20125;-87
2021/05/18 02:03:19;;;;;;;3.08;1.05;;;10.60;1.00;;;;;;4992661;28;20022;-86
2021/05/18 02:05:45;;;;;;;2.83;0.95;;;10.60;1.00;;;;;;4993255;28;20390;-86
2021/05/18 02:08:14;;;;;;;2.33;0.98;;;11.10;1.00;;;;;;4992937;28;20029;-86
2021/05/18 02:10:40;;;;;;;2.20;1.00;;;10.50;1.00;;;;;;4992243;28;20034;-86
2021/05/18 02:13:06;;;;;;;4.53;1.08;;;10.60;1.00;;;;;;4992910;28;20093;-86
2021/05/18 02:15:53;;;;;;;5.45;1.10;;;10.60;1.00;;;;;;4992254;28;20066;-86
2021/05/18 02:20:53;;;;;;;2.78;0.93;;;10.50;1.00;;;;;;4993018;28;20044;-86
2021/05/18 02:26:05;;;;;;;2.58;1.10;;;10.50;1.00;;;;;;4991398;28;20153;-85
2021/05/18 02:28:31;;;;;;;1.33;1.10;;;10.60;1.00;;;;;;4992264;28;20458;-86
2021/05/18 02:30:57;;;;;;;5.85;1.35;;;10.30;1.00;;;;;;4992524;28;20070;-86
2021/05/18 02:33:23;;;;;;;3.00;1.02;;;10.30;1.00;;;;;;4991901;28;20022;-86
2021/05/18 02:35:53;;;;;;;1.60;1.15;;;10.30;1.00;;;;;;4992290;28;20394;-87
2021/05/18 02:38:19;;;;;;;2.67;1.20;;;10.30;1.00;;;;;;4992805;28;20084;-87
2021/05/18 02:40:45;;;;;;;3.72;1.20;;;10.30;1.00;;;;;;4976053;28;20070;-86
2021/05/18 02:43:16;;;;;;;2.60;1.25;;;10.20;1.00;;;;;;4992007;28;20034;-86
2021/05/18 02:50:55;;;;;;;5.18;1.10;;;10.10;1.00;;;;;;4989923;28;20509;-86
2021/05/18 02:53:20;;;;;;;1.45;1.00;;;10.20;1.00;;;;;;4992464;28;20054;-85
2021/05/18 02:56:20;;;;;;;2.88;1.00;;;10.10;1.00;;;;;;4991658;28;20376;-86
2021/05/18 02:58:55;;;;;;;3.22;1.45;;;9.90;1.00;;;;;;4991813;28;20493;-86
2021/05/18 03:01:28;;;;;;;3.30;1.05;;;9.90;1.00;;;;;;4968489;28;20030;-86
2021/05/18 03:03:55;;;;;;;3.50;1.40;;;9.90;1.00;;;;;;4972190;28;20393;-86
2021/05/18 03:06:21;;;;;;;2.47;1.40;;;9.90;1.00;;;;;;4998500;28;20032;-86
2021/05/18 03:08:48;;;;;;;3.33;1.70;;;10.00;1.00;;;;;;4997817;28;20031;-86
2021/05/18 03:11:14;;;;;;;2.97;1.20;;;9.90;1.00;;;;;;4999072;28;20030;-86
2021/05/18 03:13:39;;;;;;;3.53;1.10;;;10.00;1.00;;;;;;4998384;28;20030;-85
2021/05/18 03:16:08;;;;;;;2.50;1.33;;;9.80;1.00;;;;;;4998545;28;20427;-86
2021/05/18 03:18:35;;;;;;;4.38;1.30;;;9.70;1.00;;;;;;4998416;28;20042;-86
2021/05/18 03:21:03;;;;;;;1.92;1.50;;;9.80;1.00;;;;;;4997258;28;20022;-86
2021/05/18 03:23:29;;;;;;;2.42;1.40;;;9.70;1.00;;;;;;4998493;28;20035;-85
2021/05/18 03:25:55;;;;;;;1.73;1.25;;;10.10;1.00;;;;;;4981758;28;20058;-86
2021/05/18 03:28:21;;;;;;;3.85;1.40;;;9.80;1.00;;;;;;4997993;28;20069;-85
2021/05/18 03:36:07;;;;;;;2.30;1.23;;;9.70;1.00;;;;;;4998758;28;20104;-86
2021/05/18 03:38:39;;;;;;;2.15;1.33;;;9.60;1.00;;;;;;4998138;28;20463;-85
2021/05/18 03:41:19;;;;;;;3.72;1.40;;;9.70;1.00;;;;;;4994866;28;20038;-85
2021/05/18 04:24:53;;;;;;;2.72;1.40;;;10.20;1.00;;;;;;4977608;28;20022;-86
2021/05/18 04:49:49;;;;;;;2.72;1.52;;;10.00;1.00;;;;;;4935720;29;20035;-88
2021/05/18 04:52:11;;;;;;;4.32;1.90;;;9.90;1.00;;;;;;4923634;29;20140;-87
2021/05/18 05:00:05;;;;;;;5.35;1.65;;;9.80;1.00;;;;;;4932355;29;20146;-87
2021/05/18 05:08:07;;;;;;;2.78;1.80;;;10.10;1.00;;;;;;4916529;29;20417;-86
2021/05/18 05:15:31;;;;;;;9.23;2.60;;;10.10;1.00;;;;;;4994368;28;20034;-86
2021/05/18 05:17:57;;;;;;;4.25;1.90;;;10.20;1.00;;;;;;4971762;28;20404;-86
2021/05/18 05:20:23;;;;;;;2.65;1.88;;;10.50;1.00;;;;;;4991729;28;20045;-84
2021/05/18 05:22:48;;;;;;;2.53;2.08;;;10.20;1.00;;;;;;4993622;28;20037;-90
2021/05/18 05:25:14;;;;;;;5.60;1.70;;;10.20;1.00;;;;;;4992544;28;20046;-86
2021/05/18 05:27:40;;;;;;;7.32;2.40;;;10.30;1.00;;;;;;4993232;28;20026;-85
2021/05/18 05:30:07;;;;;;;2.83;2.13;;;10.00;1.00;;;;;;4993208;28;20027;-86
2021/05/18 05:32:32;;;;;;;4.95;2.22;;;9.90;1.00;;;;;;4977560;28;20030;-86
2021/05/18 05:34:58;;;;;;;4.60;2.10;;;10.10;1.00;;;;;;4992775;28;20115;-86
2021/05/18 05:37:24;;;;;;;3.60;2.20;;;10.30;1.00;;;;;;4976339;28;20050;-85
2021/05/18 05:39:50;;;;;;;7.75;1.90;;;10.60;1.00;;;;;;4976268;28;20495;-84
2021/05/18 05:42:16;;;;;;;3.22;1.67;;;10.40;1.00;;;;;;4992871;28;20069;-87
2021/05/18 05:44:42;;;;;;;2.30;1.60;;;10.40;1.00;;;;;;4993878;28;20030;-86
2021/05/18 05:47:08;;;;;;;5.22;1.73;;;10.50;1.00;;;;;;4992960;28;20530;-88
2021/05/18 05:49:33;;;;;;;7.63;1.80;;;10.90;1.00;;;;;;4976150;28;20121;-88
2021/05/18 05:52:00;;;;;;;3.72;2.08;;;10.60;1.00;;;;;;4976772;28;20034;-87
2021/05/18 05:54:25;;;;;;;6.28;2.47;;;10.80;1.00;;;;;;4992813;28;20095;-87
2021/05/18 05:56:51;;;;;;;5.78;2.55;;;10.90;1.00;;;;;;4992859;28;20053;-85
2021/05/18 05:59:18;;;;;;;4.03;2.50;;;11.00;1.00;;;;;;4993344;28;20030;-86
2021/05/18 06:01:44;;;;;;;6.10;2.38;;;11.50;1.00;;;;;;4992858;28;20035;-87
2021/05/18 06:04:10;;;;;;;5.60;2.80;;;11.10;1.00;;;;;;4991952;28;20028;-87
2021/05/18 06:06:35;;;;;;;6.90;2.78;;;11.30;1.00;;;;;;4975266;28;20029;-87
2021/05/18 06:09:01;;;;;;;4.38;1.90;;;11.80;1.00;;;;;;4992286;28;20072;-87
2021/05/18 06:11:38;;;;;;;3.47;2.10;;;11.50;1.00;;;;;;4992879;28;20062;-87
2021/05/18 06:46:20;;;;;;;6.13;1.95;;;12.80;1.00;;;;;;4991971;28;20105;-85
2021/05/18 06:48:35;;;;;;;9.20;3.05;;;12.40;1.00;;;;;;4976389;28;20113;-88
2021/05/18 06:51:00;;;;;;;5.53;2.13;;;12.90;1.00;;;;;;4991392;28;20048;-88
2021/05/18 06:53:26;;;;;;;8.27;2.25;;;12.70;1.00;;;;;;4992127;28;20030;-87
2021/05/18 06:55:53;;;;;;;4.95;2.83;;;12.90;1.00;;;;;;4991640;28;20491;-89
2021/05/18 07:00:06;;;;;;;7.55;2.25;;;13.20;1.00;;;;;;4991897;28;20037;-87
2021/05/18 07:01:21;;;;;;;6.78;2.90;;;13.20;1.00;;;;;;4991923;28;20049;-88
2021/05/18 07:03:50;;;;;;;5.38;2.13;;;13.30;1.00;;;;;;4992200;28;20396;-87
2021/05/18 07:09:00;;;;;;;9.45;2.60;;;13.60;1.00;;;;;;4992547;28;20038;-88
2021/05/18 07:11:26;;;;;;;6.93;2.15;;;13.70;1.00;;;;;;4992625;28;20026;-88
2021/05/18 07:13:52;;;;;;;5.70;1.77;;;13.90;1.00;;;;;;4982373;28;20073;-88
2021/05/18 07:16:18;;;;;;;7.28;2.00;;;14.00;1.00;;;;;;4991170;28;20045;-87
2021/05/18 07:18:44;;;;;;;8.30;1.98;;;14.00;1.00;;;;;;4992528;28;20022;-88
2021/05/18 07:21:10;;;;;;;7.10;2.00;;;14.10;1.00;;;;;;4991903;28;20379;-88
2021/05/18 07:23:35;;;;;;;5.90;1.60;;;14.20;1.00;;;;;;4992450;28;20046;-88
2021/05/18 07:26:03;;;;;;;4.95;1.80;;;14.20;1.00;;;;;;4976591;28;20515;-85
2021/05/18 07:28:31;;;;;;;19.05;2.80;;;14.20;1.00;;;;;;4991988;28;20030;-85
2021/05/18 07:30:57;;;;;;;12.07;2.40;;;14.30;1.00;;;;;;4974924;28;20042;-85
2021/05/18 07:33:23;;;;;;;79.15;10.38;;;14.20;1.00;;;;;;4992881;28;20461;-87
2021/05/18 07:35:54;;;;;;;12.45;2.13;;;14.20;1.00;;;;;;4992573;28;20042;-89
2021/05/18 07:38:19;;;;;;;7.13;1.60;;;14.20;1.00;;;;;;4991602;28;20033;-85
2021/05/18 07:40:45;;;;;;;37.13;5.90;;;14.10;1.00;;;;;;4990888;28;20034;-85
2021/05/18 07:43:13;;;;;;;13.55;2.20;;;14.20;1.00;;;;;;4989925;28;20047;-85
2021/05/18 07:45:39;;;;;;;8.07;1.90;;;14.30;1.00;;;;;;4991828;28;20105;-84
2021/05/18 07:48:31;;;;;;;7.22;1.83;;;14.30;1.00;;;;;;4990225;28;20082;-86
2021/05/18 07:51:05;;;;;;;5.00;1.83;;;14.30;1.00;;;;;;4995288;28;20101;-85
2021/05/18 08:07:13;;;;;;;20.00;3.58;;;14.30;1.00;;;;;;4933612;29;20408;-86
2021/05/18 08:09:44;;;;;;;6.47;1.77;;;14.50;1.00;;;;;;4931879;29;20031;-86
2021/05/18 08:12:10;;;;;;;7.28;1.33;;;14.60;1.00;;;;;;4931996;29;20115;-86
2021/05/18 08:14:40;;;;;;;6.18;1.55;;;14.70;1.00;;;;;;4933906;29;20488;-86
2021/05/18 08:17:19;;;;;;;7.07;1.77;;;14.70;1.00;;;;;;4931815;29;20130;-86
2021/05/18 08:20:11;;;;;;;9.50;1.75;;;14.80;1.00;;;;;;4931352;29;20038;-86
2021/05/18 09:49:18;;;;;;;4.30;1.38;;;19.50;99.90;;;;;;4994353;28;20053;-89
2021/05/18 10:23:37;;;;;;;4.10;1.08;;;20.20;99.90;;;;;;4991443;28;20041;-87
2021/05/18 10:36:08;;;;;;;5.40;1.38;;;21.40;99.90;;;;;;4992212;28;20503;-85
2021/05/18 10:38:43;;;;;;;3.63;1.52;;;21.30;99.90;;;;;;4990965;28;20081;-85
2021/05/18 10:41:17;;;;;;;7.60;1.30;;;21.10;99.90;;;;;;4992972;28;20038;-87
2021/05/18 10:44:06;;;;;;;5.13;1.48;;;20.70;99.90;;;;;;4975595;28;20030;-86
2021/05/18 10:46:50;;;;;;;5.28;1.25;;;20.50;99.90;;;;;;4991843;28;20030;-90
2021/05/18 10:49:37;;;;;;;3.63;1.25;;;20.50;99.90;;;;;;4992124;28;20041;-88
2021/05/18 10:52:04;;;;;;;5.35;1.27;;;20.90;99.90;;;;;;4991219;28;20506;-86
2021/05/18 10:54:33;;;;;;;3.83;1.60;;;21.10;99.90;;;;;;4991503;28;20065;-84
2021/05/18 10:57:04;;;;;;;4.38;1.50;;;20.60;99.90;;;;;;4991445;28;20105;-86
2021/05/18 10:59:37;;;;;;;4.25;1.85;;;20.80;99.90;;;;;;4975127;28;20084;-89
2021/05/18 11:02:04;;;;;;;3.33;1.15;;;21.60;99.90;;;;;;4991363;28;20031;-86
2021/05/18 11:04:47;;;;;;;2.55;1.25;;;20.90;99.90;;;;;;4986971;28;20093;-87
2021/05/18 11:07:19;;;;;;;6.00;1.83;;;21.10;99.90;;;;;;4982658;28;20395;-87
2021/05/18 11:09:46;;;;;;;3.28;1.17;;;22.00;99.90;;;;;;4984057;28;20041;-86
2021/05/18 11:12:17;;;;;;;2.55;1.10;;;22.70;99.90;;;;;;4966312;28;20026;-88
2021/05/18 11:14:58;;;;;;;3.40;1.63;;;22.50;99.90;;;;;;4988487;28;20046;-85
2021/05/18 11:17:33;;;;;;;2.58;1.08;;;22.40;99.90;;;;;;4990064;28;20104;-87
2021/05/18 11:20:45;;;;;;;6.75;1.63;;;20.90;99.90;;;;;;4975888;28;20038;-84
2021/05/18 11:25:52;;;;;;;5.10;1.40;;;20.70;99.90;;;;;;4995325;28;20054;-90
2021/05/18 11:28:23;;;;;;;6.53;2.00;;;21.00;99.90;;;;;;4995095;28;20033;-87
2021/05/18 11:31:01;;;;;;;4.13;1.35;;;20.80;99.90;;;;;;4995514;28;20026;-89
2021/05/18 11:33:32;;;;;;;4.00;1.15;;;20.70;99.90;;;;;;4995478;28;20035;-89
2021/05/18 11:36:16;;;;;;;6.25;1.50;;;20.70;99.90;;;;;;4979147;28;20037;-88
2021/05/18 11:38:50;;;;;;;5.35;1.70;;;20.70;99.90;;;;;;4992828;28;20022;-90
2021/05/18 11:41:19;;;;;;;3.47;1.20;;;21.10;99.90;;;;;;4994699;28;20041;-87
2021/05/18 11:43:48;;;;;;;4.75;1.17;;;22.20;99.90;;;;;;4994818;28;20033;-87
2021/05/18 11:46:14;;;;;;;3.58;1.33;;;24.10;99.90;;;;;;4995352;28;20721;-86
2021/05/18 11:48:42;;;;;;;1.85;1.00;;;25.90;99.90;;;;;;4995258;28;20026;-87
2021/05/18 11:51:13;;;;;;;4.15;1.30;;;24.80;99.90;;;;;;4994547;28;20022;-86
2021/05/18 11:53:43;;;;;;;4.55;1.38;;;24.20;99.90;;;;;;4995460;28;20037;-86
2021/05/18 11:56:28;;;;;;;3.40;1.42;;;23.10;99.90;;;;;;4994742;28;20549;-86
2021/05/18 11:58:58;;;;;;;3.60;1.40;;;23.40;99.90;;;;;;4994583;28;20092;-86
2021/05/18 12:01:24;;;;;;;3.22;1.27;;;23.50;99.90;;;;;;4994866;28;20069;-85
2021/05/18 12:04:14;;;;;;;3.63;1.27;;;22.80;99.90;;;;;;4994458;28;20054;-86
2021/05/18 12:06:56;;;;;;;3.88;1.20;;;21.50;99.90;;;;;;4994693;28;20414;-86
2021/05/18 12:09:23;;;;;;;5.28;1.40;;;20.90;99.90;;;;;;4980531;28;20105;-85
2021/05/18 12:11:56;;;;;;;3.35;1.10;;;20.60;99.90;;;;;;4995059;28;20057;-85
2021/05/18 12:14:23;;;;;;;3.45;1.20;;;20.40;99.90;;;;;;4964591;28;20031;-85
2021/05/18 12:16:50;;;;;;;3.38;1.17;;;20.30;99.90;;;;;;4991678;28;20590;-86
2021/05/18 12:19:17;;;;;;;3.35;1.15;;;19.90;99.90;;;;;;4993376;28;20560;-85
2021/05/18 12:21:45;;;;;;;6.43;1.45;;;19.60;99.90;;;;;;4994115;28;20026;-86
2021/05/18 12:24:12;;;;;;;2.33;1.08;;;19.40;99.90;;;;;;4994569;28;20038;-86
2021/05/18 12:26:59;;;;;;;4.15;1.00;;;19.10;99.90;;;;;;4994895;28;20070;-85
2021/05/18 12:29:30;;;;;;;3.25;1.20;;;19.10;99.90;;;;;;4992913;28;20034;-86
2021/05/18 12:32:21;;;;;;;5.38;1.30;;;18.80;99.90;;;;;;4994222;28;20053;-86
2021/05/18 12:34:50;;;;;;;5.15;1.50;;;18.70;99.90;;;;;;4992157;28;20503;-85
2021/05/18 12:37:16;;;;;;;4.38;1.70;;;18.50;99.90;;;;;;4993982;28;20097;-86
2021/05/18 12:39:44;;;;;;;3.85;1.15;;;18.20;99.90;;;;;;4978095;28;20037;-86
2021/05/18 12:42:14;;;;;;;4.95;1.67;;;18.10;99.90;;;;;;4994236;28;20022;-86
2021/05/18 12:45:11;;;;;;;5.78;1.58;;;18.20;99.90;;;;;;4994722;28;20077;-85
2021/05/18 12:47:39;;;;;;;4.30;1.20;;;18.20;99.90;;;;;;4978646;28;20097;-86
2021/05/18 12:50:11;;;;;;;5.45;1.38;;;18.20;99.90;;;;;;4993472;28;20037;-85
2021/05/18 12:52:42;;;;;;;4.43;1.75;;;18.40;99.90;;;;;;4993479;28;20042;-86
2021/05/18 12:55:27;;;;;;;7.75;1.30;;;18.70;99.90;;;;;;4993144;28;20066;-85
2021/05/18 12:57:56;;;;;;;5.10;1.30;;;18.90;99.90;;;;;;4994150;28;20026;-86
2021/05/18 13:00:27;;;;;;;4.93;1.25;;;19.00;99.90;;;;;;4993480;28;20487;-86
2021/05/18 13:02:53;;;;;;;5.03;1.25;;;18.80;99.90;;;;;;4993100;28;20022;-85
2021/05/18 13:05:30;;;;;;;3.40;1.00;;;18.70;99.90;;;;;;4993648;28;20066;-86
2021/05/18 13:08:18;;;;;;;3.83;1.40;;;18.30;99.90;;;;;;4993613;28;20027;-85
2021/05/18 13:13:38;;;;;;;3.67;1.20;;;17.50;99.90;;;;;;4993053;28;20038;-85
2021/05/18 13:16:17;;;;;;;2.70;1.33;;;17.40;99.90;;;;;;4993424;28;20450;-85
2021/05/18 13:19:01;;;;;;;3.70;1.42;;;17.40;99.90;;;;;;4993269;28;20395;-86
2021/05/18 13:21:34;;;;;;;3.35;1.20;;;17.20;99.90;;;;;;4979643;28;20451;-86
2021/05/18 13:26:47;;;;;;;3.67;1.17;;;17.10;99.90;;;;;;4914099;29;20044;-85
2021/05/18 13:29:18;;;;;;;4.15;1.50;;;17.20;99.90;;;;;;4914348;29;20067;-85
2021/05/18 13:31:46;;;;;;;3.88;1.38;;;17.30;99.90;;;;;;4913502;29;20080;-86
2021/05/18 13:34:12;;;;;;;5.30;1.33;;;17.40;99.90;;;;;;4913637;29;20105;-85
2021/05/18 13:36:38;;;;;;;4.55;1.38;;;17.60;99.90;;;;;;4914019;29;20411;-85
2021/05/18 13:39:10;;;;;;;2.78;1.17;;;17.40;99.90;;;;;;4913823;29;20089;-85
2021/05/18 13:41:36;;;;;;;3.45;1.02;;;17.60;99.90;;;;;;4914796;29;20036;-85
2021/05/18 13:44:03;;;;;;;9.63;1.50;;;17.90;99.90;;;;;;4913852;29;20174;-85
2021/05/18 13:46:29;;;;;;;5.20;1.30;;;17.90;99.90;;;;;;4912648;29;20032;-86
2021/05/18 13:48:55;;;;;;;2.97;1.00;;;17.70;99.90;;;;;;4913790;29;20378;-84
2021/05/18 13:51:21;;;;;;;7.97;1.60;;;17.60;99.90;;;;;;4897313;29;20052;-85
2021/05/18 13:53:47;;;;;;;2.42;1.10;;;17.30;99.90;;;;;;4913772;29;20040;-86
2021/05/18 13:56:13;;;;;;;5.22;1.80;;;17.20;99.90;;;;;;4913203;29;20039;-86
2021/05/18 13:58:38;;;;;;;3.08;1.23;;;17.20;99.90;;;;;;4913889;29;20043;-85
2021/05/18 14:01:06;;;;;;;6.10;1.45;;;17.60;99.90;;;;;;4912986;29;20115;-85
2021/05/18 14:03:32;;;;;;;3.58;1.23;;;17.60;99.90;;;;;;4941528;28;20122;-85
2021/05/18 14:05:58;;;;;;;3.55;1.10;;;17.70;99.90;;;;;;4992816;28;20030;-85
2021/05/18 14:08:25;;;;;;;3.15;1.40;;;17.90;99.90;;;;;;4990716;28;20042;-85
2021/05/18 14:10:59;;;;;;;5.38;1.48;;;17.80;99.90;;;;;;4975892;28;20031;-86
2021/05/18 14:13:27;;;;;;;4.80;1.50;;;17.60;99.90;;;;;;4992162;28;20105;-86
2021/05/18 14:15:53;;;;;;;3.70;1.27;;;18.00;99.90;;;;;;4991692;28;20034;-85
2021/05/18 14:18:19;;;;;;;3.33;1.33;;;18.00;99.90;;;;;;4992371;28;20037;-86
2021/05/18 14:20:44;;;;;;;5.60;1.48;;;17.90;99.90;;;;;;4992499;28;20403;-85
2021/05/18 14:23:11;;;;;;;3.97;1.73;;;17.40;99.90;;;;;;4977188;28;20030;-85
2021/05/18 14:25:38;;;;;;;5.40;1.52;;;17.10;99.90;;;;;;4991883;28;20129;-86
2021/05/18 14:28:05;;;;;;;4.47;1.38;;;17.00;99.90;;;;;;4992456;28;20026;-86
2021/05/18 14:30:30;;;;;;;5.13;1.35;;;16.80;99.90;;;;;;4991453;28;20081;-85
2021/05/18 14:32:57;;;;;;;4.30;1.20;;;17.10;99.90;;;;;;4992213;28;20038;-86
2021/05/18 14:35:24;;;;;;;3.92;1.15;;;17.20;99.90;;;;;;4992387;28;20050;-85
2021/05/18 14:37:55;;;;;;;4.65;1.27;;;16.60;99.90;;;;;;4991696;28;20019;-85
2021/05/18 14:40:42;;;;;;;3.90;1.60;;;16.40;99.90;;;;;;4992474;28;20022;-86
2021/05/18 14:43:53;;;;;;;2.90;1.40;;;17.10;99.90;;;;;;4991492;28;21504;-85
2021/05/18 14:45:58;;;;;;;3.95;1.20;;;16.60;99.90;;;;;;4990675;28;20041;-86
2021/05/18 14:54:10;;;;;;;5.28;1.08;;;16.50;99.90;;;;;;4951459;29;20058;-85
2021/05/18 14:56:35;;;;;;;5.95;1.40;;;16.30;99.90;;;;;;4935363;29;20424;-85
2021/05/18 14:59:01;;;;;;;4.10;1.08;;;16.40;99.90;;;;;;4949525;29;20034;-85
2021/05/18 15:01:37;;;;;;;6.10;2.30;;;16.60;99.90;;;;;;4950646;29;20508;-91
2021/05/18 15:04:03;;;;;;;5.88;1.70;;;16.80;99.90;;;;;;4951610;29;20062;-86
2021/05/18 15:06:31;;;;;;;6.00;1.77;;;16.80;99.90;;;;;;4951761;29;20063;-87
2021/05/18 15:08:57;;;;;;;5.10;1.92;;;16.70;99.90;;;;;;4950670;28;20039;-87
2021/05/18 15:11:22;;;;;;;5.38;1.48;;;16.50;99.90;;;;;;4951643;29;20035;-87
2021/05/18 15:13:48;;;;;;;7.65;1.45;;;16.70;99.90;;;;;;4934596;29;20400;-86
2021/05/18 15:16:13;;;;;;;2.80;1.10;;;16.60;99.90;;;;;;4950599;29;20055;-87
2021/05/18 15:18:39;;;;;;;3.15;1.25;;;16.20;99.90;;;;;;4950865;29;20456;-87
2021/05/18 15:21:05;;;;;;;2.75;1.00;;;16.40;99.90;;;;;;4950925;29;20126;-87
2021/05/18 15:23:31;;;;;;;3.92;1.10;;;16.50;99.90;;;;;;4951051;29;20042;-87
2021/05/18 15:25:57;;;;;;;2.60;1.00;;;16.30;99.90;;;;;;4950181;29;20047;-87
2021/05/18 15:28:23;;;;;;;4.85;1.15;;;16.30;99.90;;;;;;4972571;28;20038;-87
2021/05/18 15:30:49;;;;;;;2.35;1.02;;;16.30;99.90;;;;;;4991548;28;20037;-87
2021/05/18 15:33:14;;;;;;;6.47;1.50;;;16.40;99.90;;;;;;4991672;28;20035;-87
2021/05/18 15:35:40;;;;;;;4.15;1.25;;;16.10;99.90;;;;;;4991798;28;20035;-87
2021/05/18 15:38:06;;;;;;;3.97;1.23;;;16.20;99.90;;;;;;4991476;28;20031;-87
2021/05/18 15:40:32;;;;;;;6.03;1.50;;;16.10;99.90;;;;;;4975301;28;20041;-87
2021/05/18 15:42:58;;;;;;;5.18;1.20;;;16.20;99.90;;;;;;4974704;28;20026;-87
2021/05/18 15:45:23;;;;;;;4.93;1.10;;;16.20;99.90;;;;;;4991547;28;20033;-87
2021/05/18 15:47:49;;;;;;;223.63;25.45;;;16.20;99.90;;;;;;4991179;28;20080;-88
2021/05/18 15:50:15;;;;;;;74.55;10.13;;;16.30;99.90;;;;;;4991695;28;20030;-87
2021/05/18 15:52:41;;;;;;;50.45;6.78;;;16.30;99.90;;;;;;4991456;28;20022;-87
2021/05/18 15:55:08;;;;;;;16.75;5.18;;;16.50;99.90;;;;;;4974805;28;20049;-88
2021/05/18 15:57:34;;;;;;;131.95;16.88;;;16.80;99.90;;;;;;4990545;28;20501;-88
2021/05/18 15:59:59;;;;;;;13.07;2.20;;;17.10;99.90;;;;;;4973626;28;20026;-87
2021/05/18 16:02:25;;;;;;;1.88;0.80;;;16.80;99.90;;;;;;4974365;28;20038;-87
2021/05/18 16:04:51;;;;;;;20.15;3.13;;;16.40;99.90;;;;;;4991278;28;20568;-87
2021/05/18 16:07:18;;;;;;;3.67;1.35;;;16.20;99.90;;;;;;4974834;28;20026;-87
2021/05/18 16:09:44;;;;;;;4.70;1.45;;;15.30;99.90;;;;;;4977423;28;20026;-87
2021/05/18 16:12:11;;;;;;;3.30;1.25;;;14.70;99.90;;;;;;4994420;28;20022;-88
2021/05/18 16:14:36;;;;;;;5.22;1.60;;;14.00;99.90;;;;;;4995562;28;20491;-88
2021/05/18 16:17:03;;;;;;;4.95;1.50;;;14.00;99.90;;;;;;4995298;28;20033;-87
2021/05/18 16:19:29;;;;;;;3.22;1.33;;;14.00;99.90;;;;;;4994326;28;20037;-88
2021/05/18 16:21:54;;;;;;;4.50;1.40;;;14.10;99.90;;;;;;4994649;28;20020;-88
2021/05/18 16:24:21;;;;;;;2.70;1.33;;;14.10;99.90;;;;;;4994332;28;20022;-88
2021/05/18 16:26:47;;;;;;;2.40;1.30;;;14.30;99.90;;;;;;4994477;28;20046;-87
2021/05/18 16:29:13;;;;;;;3.20;1.50;;;14.30;99.90;;;;;;4994654;28;20027;-87
2021/05/18 16:31:39;;;;;;;3.60;1.40;;;14.00;99.90;;;;;;4980018;28;20040;-88
2021/05/18 16:34:05;;;;;;;3.40;1.42;;;14.00;99.90;;;;;;4979211;28;20026;-88
2021/05/18 16:36:31;;;;;;;3.58;1.42;;;14.00;99.90;;;;;;4978604;28;20068;-87
2021/05/18 16:38:57;;;;;;;3.05;1.00;;;14.20;99.90;;;;;;4994646;28;20030;-88
2021/05/18 16:41:23;;;;;;;3.72;1.33;;;14.50;99.90;;;;;;4994211;28;20030;-87
2021/05/18 16:43:49;;;;;;;3.60;1.20;;;14.50;99.90;;;;;;4994002;28;20038;-87
2021/05/18 16:46:15;;;;;;;2.10;1.10;;;14.20;99.90;;;;;;4977834;28;20018;-88
2021/05/18 16:48:41;;;;;;;2.95;1.23;;;14.20;99.90;;;;;;4978016;28;20026;-88
2021/05/18 16:51:08;;;;;;;2.00;0.98;;;14.10;99.90;;;;;;4994328;28;20115;-88
2021/05/18 16:53:35;;;;;;;3.00;1.15;;;14.20;99.90;;;;;;4995090;28;20080;-87
2021/05/18 16:56:03;;;;;;;2.80;1.20;;;14.00;99.90;;;;;;4977277;28;20104;-87
2021/05/18 16:58:29;;;;;;;2.35;1.20;;;13.90;99.90;;;;;;4993865;28;20583;-88
2021/05/18 17:00:54;;;;;;;1.80;1.10;;;13.70;99.90;;;;;;4994029;28;20057;-88
2021/05/18 17:03:20;;;;;;;1.88;1.00;;;13.80;99.90;;;;;;4993593;28;20038;-88
2021/05/18 17:05:46;;;;;;;2.38;1.20;;;13.80;99.90;;;;;;4994969;28;20023;-88
2021/05/18 17:08:11;;;;;;;3.80;1.88;;;13.50;99.90;;;;;;4993628;28;20508;-88
2021/05/18 17:10:40;;;;;;;3.25;1.10;;;13.80;99.90;;;;;;4977128;28;20486;-88
2021/05/18 17:13:06;;;;;;;3.03;1.10;;;13.40;99.90;;;;;;4994228;28;20023;-88
2021/05/18 17:15:33;;;;;;;2.38;1.10;;;13.50;99.90;;;;;;4992976;28;20553;-88
2021/05/18 17:17:59;;;;;;;2.33;1.20;;;13.60;99.90;;;;;;4976448;28;20034;-88
2021/05/18 17:20:31;;;;;;;1.95;1.05;;;13.40;99.90;;;;;;4976403;28;20038;-88
2021/05/18 17:22:58;;;;;;;1.55;0.95;;;13.40;99.90;;;;;;4993558;28;20035;-88
2021/05/18 17:25:23;;;;;;;2.47;1.45;;;13.20;99.90;;;;;;4978270;28;20030;-88
2021/05/18 17:27:49;;;;;;;1.98;1.00;;;13.40;99.90;;;;;;4993099;28;20093;-87
2021/05/18 17:30:18;;;;;;;2.35;1.15;;;13.40;99.90;;;;;;4993635;28;20080;-88
2021/05/18 17:32:44;;;;;;;3.42;1.90;;;12.90;99.90;;;;;;4990548;28;20511;-88
2021/05/18 17:35:11;;;;;;;4.07;1.23;;;12.90;1.00;;;;;;4993554;28;20070;-88
2021/05/18 17:37:39;;;;;;;2.00;1.40;;;13.00;1.00;;;;;;4993508;28;20022;-88
2021/05/18 17:40:06;;;;;;;4.07;1.40;;;13.10;1.00;;;;;;4992740;28;20520;-89
2021/05/18 17:42:32;;;;;;;2.25;1.10;;;13.00;1.00;;;;;;4977668;28;20027;-87
2021/05/18 17:45:01;;;;;;;1.70;1.30;;;13.00;1.00;;;;;;4993473;28;20034;-88
2021/05/18 17:47:26;;;;;;;4.25;1.50;;;13.30;1.00;;;;;;4992226;28;20026;-88
2021/05/18 17:49:52;;;;;;;3.67;1.50;;;12.80;1.00;;;;;;4993343;28;20483;-88
2021/05/18 17:52:18;;;;;;;2.35;1.65;;;12.60;1.00;;;;;;4978338;28;20022;-88
2021/05/18 17:54:43;;;;;;;4.80;1.50;;;12.60;1.00;;;;;;4992619;28;20035;-88